Terminal Aerodrome Forecast
Issued by NWS Shreveport, LA

Home | Current Version | Previous Version | Text Only | Print | Product List | Glossary On
Versions: 1 2 3 4 5 6 7 8 9 10 11 12 13 14 15 16 17
466
FTUS44 KSHV 181135
TAFELD
TAF
KELD 181135Z 1812/1912 VRB03KT P6SM SCT035 BKN045 OVC070
      TEMPO 1812/1814 00000KT 3SM BR
     FM181800 22008KT P6SM BKN035 BKN150 BKN250
     FM190000 19003KT P6SM SCT250=

USA.gov is the U.S. government's official web portal to all federal, state and local government web resources and services.